UTA210 UWKD-USTR
Flight info
| Callsign | UTA210 |
|---|---|
| Flight time | 1h 33m |
| Altitude | 35000 |
| Route | RIMIP1G RIMIP L94 LOMBI P135 GIBUL P983 GINPA GINPA1M |
| Aircraft | B738/M-SDE2E3FGHIRWXY/LB1 |
Departure
| Time | 2026-04-22 16:11 |
|---|---|
| Airport | Kazan International Airport (UWKD) |
Arrival
| Time | 2026-04-22 17:44 |
|---|---|
| Airport | Roshchino International Airport (USTR) |
| Time | Latitude | Longitude | Altitude | Speed | Heading |
|---|---|---|---|---|---|
| 2026-04-22 15:38 | 55.60630 | 49.29790 | 416 ft | 0 kts | 34° |
| 2026-04-22 16:04 | 55.60636 | 49.29797 | 416 ft | 4 kts | 34° |
| 2026-04-22 16:04 | 55.60682 | 49.29805 | 415 ft | 10 kts | 329° |
| 2026-04-22 16:04 | 55.60731 | 49.29691 | 414 ft | 12 kts | 303° |
| 2026-04-22 16:05 | 55.60764 | 49.29605 | 412 ft | 13 kts | 303° |
| 2026-04-22 16:05 | 55.60813 | 49.29440 | 409 ft | 5 kts | 240° |
| 2026-04-22 16:05 | 55.60791 | 49.29400 | 410 ft | 3 kts | 225° |
| 2026-04-22 16:05 | 55.60760 | 49.29360 | 410 ft | 9 kts | 213° |
| 2026-04-22 16:06 | 55.60689 | 49.29276 | 411 ft | 13 kts | 214° |
| 2026-04-22 16:06 | 55.60608 | 49.29174 | 409 ft | 14 kts | 226° |
| 2026-04-22 16:06 | 55.60579 | 49.29017 | 407 ft | 14 kts | 272° |
| 2026-04-22 16:06 | 55.60585 | 49.28850 | 407 ft | 13 kts | 274° |
| 2026-04-22 16:07 | 55.60591 | 49.28694 | 406 ft | 12 kts | 275° |
| 2026-04-22 16:07 | 55.60622 | 49.28545 | 404 ft | 12 kts | 303° |
| 2026-04-22 16:07 | 55.60672 | 49.28411 | 402 ft | 14 kts | 303° |
| 2026-04-22 16:07 | 55.60754 | 49.28202 | 398 ft | 26 kts | 304° |
| 2026-04-22 16:08 | 55.60863 | 49.27922 | 393 ft | 28 kts | 304° |
| 2026-04-22 16:08 | 55.60979 | 49.27622 | 384 ft | 30 kts | 304° |
| 2026-04-22 16:08 | 55.61100 | 49.27313 | 378 ft | 28 kts | 304° |
| 2026-04-22 16:08 | 55.61190 | 49.27082 | 373 ft | 17 kts | 303° |
| 2026-04-22 16:09 | 55.61217 | 49.26942 | 370 ft | 12 kts | 246° |
| 2026-04-22 16:09 | 55.61159 | 49.26854 | 369 ft | 9 kts | 214° |
| 2026-04-22 16:09 | 55.61103 | 49.26785 | 367 ft | 10 kts | 214° |
| 2026-04-22 16:09 | 55.61049 | 49.26797 | 368 ft | 7 kts | 133° |
| 2026-04-22 16:10 | 55.61024 | 49.26856 | 369 ft | 5 kts | 125° |
| 2026-04-22 16:10 | 55.60966 | 49.27000 | 372 ft | 34 kts | 125° |
| 2026-04-22 16:10 | 55.60806 | 49.27409 | 380 ft | 85 kts | 124° |
| 2026-04-22 16:10 | 55.60126 | 49.29163 | 428 ft | 166 kts | 128° |
| 2026-04-22 16:11 | 55.59470 | 49.30883 | 1062 ft | 176 kts | 127° |
| 2026-04-22 16:11 | 55.58778 | 49.32685 | 1768 ft | 187 kts | 128° |
| 2026-04-22 16:11 | 55.58012 | 49.34612 | 2328 ft | 198 kts | 127° |
| 2026-04-22 16:11 | 55.57204 | 49.36687 | 2718 ft | 216 kts | 126° |
| 2026-04-22 16:12 | 55.56322 | 49.38967 | 3179 ft | 233 kts | 126° |
| 2026-04-22 16:12 | 55.55374 | 49.41405 | 3668 ft | 251 kts | 125° |
| 2026-04-22 16:12 | 55.54568 | 49.44177 | 4271 ft | 265 kts | 103° |
| 2026-04-22 16:12 | 55.54633 | 49.47469 | 4955 ft | 273 kts | 70° |
| 2026-04-22 16:13 | 55.55510 | 49.50358 | 5769 ft | 273 kts | 54° |
| 2026-04-22 16:13 | 55.56602 | 49.53134 | 6580 ft | 277 kts | 58° |
| 2026-04-22 16:13 | 55.57332 | 49.56269 | 7387 ft | 281 kts | 73° |
| 2026-04-22 16:13 | 55.57737 | 49.59632 | 8126 ft | 286 kts | 78° |
| 2026-04-22 16:14 | 55.58071 | 49.63118 | 8912 ft | 289 kts | 79° |
| 2026-04-22 16:14 | 55.58413 | 49.66579 | 9636 ft | 293 kts | 79° |
| 2026-04-22 16:14 | 55.58796 | 49.70165 | 10214 ft | 303 kts | 78° |
| 2026-04-22 16:14 | 55.59215 | 49.73904 | 10651 ft | 317 kts | 78° |
| 2026-04-22 16:15 | 55.59659 | 49.77786 | 11005 ft | 333 kts | 78° |
| 2026-04-22 16:15 | 55.60128 | 49.81887 | 11354 ft | 349 kts | 78° |
| 2026-04-22 16:15 | 55.60614 | 49.86163 | 11791 ft | 361 kts | 78° |
| 2026-04-22 16:15 | 55.61112 | 49.90554 | 12472 ft | 366 kts | 79° |
| 2026-04-22 16:16 | 55.61602 | 49.94898 | 13152 ft | 369 kts | 79° |
| 2026-04-22 16:16 | 55.62106 | 49.99388 | 13766 ft | 374 kts | 79° |
| 2026-04-22 16:16 | 55.62635 | 50.03902 | 14382 ft | 379 kts | 77° |
| 2026-04-22 16:16 | 55.63326 | 50.08404 | 15025 ft | 383 kts | 72° |
| 2026-04-22 16:17 | 55.64237 | 50.12868 | 15614 ft | 388 kts | 68° |
| 2026-04-22 16:17 | 55.65262 | 50.17260 | 16181 ft | 392 kts | 66° |
| 2026-04-22 16:17 | 55.66350 | 50.21660 | 16737 ft | 397 kts | 66° |
| 2026-04-22 16:17 | 55.67472 | 50.26134 | 17328 ft | 401 kts | 66° |
| 2026-04-22 16:18 | 55.68597 | 50.30653 | 17881 ft | 405 kts | 66° |
| 2026-04-22 16:18 | 55.69730 | 50.35267 | 18394 ft | 410 kts | 66° |
| 2026-04-22 16:18 | 55.70847 | 50.39873 | 18981 ft | 412 kts | 66° |
| 2026-04-22 16:18 | 55.71972 | 50.44549 | 19512 ft | 417 kts | 67° |
| 2026-04-22 16:19 | 55.73114 | 50.49324 | 20099 ft | 419 kts | 67° |
| 2026-04-22 16:19 | 55.74238 | 50.54041 | 20627 ft | 423 kts | 67° |
| 2026-04-22 16:19 | 55.75377 | 50.58837 | 21190 ft | 425 kts | 67° |
| 2026-04-22 16:19 | 55.76524 | 50.63681 | 21688 ft | 428 kts | 67° |
| 2026-04-22 16:20 | 55.77678 | 50.68568 | 22235 ft | 431 kts | 68° |
| 2026-04-22 16:20 | 55.78820 | 50.73419 | 22719 ft | 434 kts | 68° |
| 2026-04-22 16:20 | 55.79994 | 50.78409 | 23202 ft | 437 kts | 68° |
| 2026-04-22 16:20 | 55.81156 | 50.83360 | 23659 ft | 440 kts | 68° |
| 2026-04-22 16:21 | 55.82337 | 50.88403 | 24119 ft | 443 kts | 68° |
| 2026-04-22 16:21 | 55.83504 | 50.93395 | 24565 ft | 445 kts | 68° |
| 2026-04-22 16:21 | 55.84694 | 50.98496 | 25016 ft | 448 kts | 68° |
| 2026-04-22 16:21 | 55.85146 | 51.00437 | 25182 ft | 448 kts | 68° |
| 2026-04-22 16:22 | 55.87525 | 51.10683 | 26079 ft | 452 kts | 68° |
| 2026-04-22 16:22 | 55.88728 | 51.15879 | 26530 ft | 454 kts | 68° |
| 2026-04-22 16:22 | 55.89922 | 51.21053 | 26938 ft | 457 kts | 68° |
| 2026-04-22 16:23 | 55.92343 | 51.31578 | 27776 ft | 460 kts | 68° |
| 2026-04-22 16:23 | 55.93546 | 51.36827 | 28182 ft | 462 kts | 68° |
| 2026-04-22 16:23 | 55.94759 | 51.42132 | 28555 ft | 465 kts | 68° |
| 2026-04-22 16:24 | 55.95968 | 51.47438 | 29159 ft | 461 kts | 68° |
| 2026-04-22 16:24 | 55.98350 | 51.57923 | 30163 ft | 456 kts | 68° |
| 2026-04-22 16:24 | 55.99529 | 51.63129 | 30609 ft | 454 kts | 68° |
| 2026-04-22 16:25 | 56.00707 | 51.68350 | 31029 ft | 453 kts | 68° |
| 2026-04-22 16:25 | 56.02937 | 51.78853 | 31522 ft | 454 kts | 73° |
| 2026-04-22 16:25 | 56.03748 | 51.84266 | 31740 ft | 454 kts | 79° |
| 2026-04-22 16:26 | 56.04258 | 51.89814 | 31986 ft | 454 kts | 84° |
| 2026-04-22 16:26 | 56.04567 | 51.95439 | 32201 ft | 454 kts | 86° |
| 2026-04-22 16:26 | 56.04775 | 52.01096 | 32428 ft | 455 kts | 88° |
| 2026-04-22 16:26 | 56.04938 | 52.06723 | 32638 ft | 455 kts | 88° |
| 2026-04-22 16:27 | 56.05088 | 52.12336 | 32846 ft | 456 kts | 88° |
| 2026-04-22 16:27 | 56.05240 | 52.17968 | 33065 ft | 456 kts | 88° |
| 2026-04-22 16:27 | 56.05398 | 52.23663 | 33309 ft | 456 kts | 88° |
| 2026-04-22 16:27 | 56.05558 | 52.29262 | 33525 ft | 456 kts | 88° |
| 2026-04-22 16:28 | 56.05725 | 52.34927 | 33748 ft | 456 kts | 88° |
| 2026-04-22 16:28 | 56.05895 | 52.40593 | 34009 ft | 456 kts | 87° |
| 2026-04-22 16:28 | 56.06065 | 52.46205 | 34248 ft | 456 kts | 87° |
| 2026-04-22 16:28 | 56.06237 | 52.51890 | 34453 ft | 458 kts | 87° |
| 2026-04-22 16:29 | 56.06408 | 52.57539 | 34665 ft | 458 kts | 87° |
| 2026-04-22 16:29 | 56.06577 | 52.63232 | 34708 ft | 461 kts | 88° |
| 2026-04-22 16:29 | 56.06886 | 52.74561 | 34724 ft | 457 kts | 89° |
| 2026-04-22 16:30 | 56.07172 | 52.85915 | 34724 ft | 458 kts | 89° |
| 2026-04-22 16:30 | 56.07447 | 52.97280 | 34724 ft | 458 kts | 89° |
| 2026-04-22 16:31 | 56.07713 | 53.08604 | 34721 ft | 457 kts | 89° |
| 2026-04-22 16:31 | 56.07971 | 53.19952 | 34720 ft | 458 kts | 89° |
| 2026-04-22 16:32 | 56.08220 | 53.31351 | 34712 ft | 458 kts | 89° |
| 2026-04-22 16:32 | 56.08457 | 53.42656 | 34714 ft | 459 kts | 89° |
| 2026-04-22 16:33 | 56.08686 | 53.54057 | 34716 ft | 459 kts | 89° |
| 2026-04-22 16:33 | 56.08904 | 53.65455 | 34719 ft | 460 kts | 90° |
| 2026-04-22 16:34 | 56.09116 | 53.76886 | 34717 ft | 459 kts | 90° |
| 2026-04-22 16:34 | 56.09316 | 53.88201 | 34719 ft | 460 kts | 90° |
| 2026-04-22 16:35 | 56.09507 | 53.99661 | 34717 ft | 459 kts | 90° |
| 2026-04-22 16:35 | 56.09686 | 54.10999 | 34719 ft | 460 kts | 90° |
| 2026-04-22 16:36 | 56.09855 | 54.22416 | 34722 ft | 459 kts | 90° |
| 2026-04-22 16:36 | 56.10035 | 54.33805 | 34723 ft | 461 kts | 88° |
| 2026-04-22 16:37 | 56.10722 | 54.45195 | 34722 ft | 463 kts | 83° |
| 2026-04-22 16:37 | 56.11755 | 54.56525 | 34722 ft | 462 kts | 81° |
| 2026-04-22 16:38 | 56.12822 | 54.67853 | 34734 ft | 462 kts | 82° |
| 2026-04-22 16:38 | 56.13841 | 54.79133 | 34736 ft | 462 kts | 83° |
| 2026-04-22 16:39 | 56.14827 | 54.90520 | 34739 ft | 463 kts | 83° |
| 2026-04-22 16:39 | 56.15786 | 55.01899 | 34736 ft | 463 kts | 83° |
| 2026-04-22 16:40 | 56.16728 | 55.13259 | 34737 ft | 463 kts | 83° |
| 2026-04-22 16:41 | 56.18115 | 55.30283 | 34740 ft | 463 kts | 83° |
| 2026-04-22 16:41 | 56.19030 | 55.41707 | 34735 ft | 464 kts | 83° |
| 2026-04-22 16:42 | 56.19934 | 55.53124 | 34729 ft | 464 kts | 83° |
| 2026-04-22 16:42 | 56.20829 | 55.64553 | 34730 ft | 464 kts | 83° |
| 2026-04-22 16:43 | 56.21717 | 55.75987 | 34733 ft | 463 kts | 84° |
| 2026-04-22 16:43 | 56.22592 | 55.87396 | 34730 ft | 463 kts | 84° |
| 2026-04-22 16:44 | 56.23459 | 55.98850 | 34729 ft | 464 kts | 84° |
| 2026-04-22 16:44 | 56.24309 | 56.10247 | 34732 ft | 464 kts | 84° |
| 2026-04-22 16:45 | 56.25159 | 56.21774 | 34739 ft | 465 kts | 84° |
| 2026-04-22 16:45 | 56.25995 | 56.33248 | 34740 ft | 465 kts | 84° |
| 2026-04-22 16:46 | 56.26821 | 56.44751 | 34732 ft | 465 kts | 84° |
| 2026-04-22 16:46 | 56.27635 | 56.56244 | 34726 ft | 466 kts | 84° |
| 2026-04-22 16:47 | 56.28444 | 56.67792 | 34723 ft | 466 kts | 85° |
| 2026-04-22 16:47 | 56.29108 | 56.77351 | 34723 ft | 467 kts | 85° |
| 2026-04-22 16:48 | 56.30033 | 56.90841 | 34717 ft | 468 kts | 85° |
| 2026-04-22 16:48 | 56.30814 | 57.02415 | 34707 ft | 468 kts | 85° |
| 2026-04-22 16:49 | 56.31588 | 57.14040 | 34707 ft | 467 kts | 85° |
| 2026-04-22 16:49 | 56.32346 | 57.25589 | 34702 ft | 468 kts | 85° |
| 2026-04-22 16:50 | 56.33099 | 57.37248 | 34706 ft | 467 kts | 85° |
| 2026-04-22 16:50 | 56.33831 | 57.48775 | 34705 ft | 468 kts | 85° |
| 2026-04-22 16:51 | 56.34562 | 57.60460 | 34706 ft | 468 kts | 85° |
| 2026-04-22 16:51 | 56.35280 | 57.72093 | 34704 ft | 468 kts | 86° |
| 2026-04-22 16:52 | 56.35984 | 57.83685 | 34702 ft | 469 kts | 86° |
| 2026-04-22 16:52 | 56.36680 | 57.95320 | 34708 ft | 469 kts | 86° |
| 2026-04-22 16:53 | 56.37370 | 58.07020 | 34710 ft | 469 kts | 86° |
| 2026-04-22 16:53 | 56.38044 | 58.18646 | 34713 ft | 468 kts | 86° |
| 2026-04-22 16:54 | 56.38709 | 58.30312 | 34714 ft | 468 kts | 86° |
| 2026-04-22 16:54 | 56.39360 | 58.41966 | 34713 ft | 469 kts | 86° |
| 2026-04-22 16:55 | 56.40001 | 58.53633 | 34716 ft | 469 kts | 86° |
| 2026-04-22 16:55 | 56.40635 | 58.65342 | 34713 ft | 470 kts | 88° |
| 2026-04-22 16:56 | 56.41254 | 58.77001 | 34712 ft | 469 kts | 88° |
| 2026-04-22 16:56 | 56.41864 | 58.88704 | 34716 ft | 469 kts | 88° |
| 2026-04-22 16:57 | 56.42463 | 59.00386 | 34716 ft | 470 kts | 88° |
| 2026-04-22 16:57 | 56.43444 | 59.11993 | 34716 ft | 473 kts | 77° |
| 2026-04-22 16:58 | 56.45271 | 59.21308 | 34724 ft | 476 kts | 68° |
| 2026-04-22 16:58 | 56.48524 | 59.33909 | 34721 ft | 476 kts | 65° |
| 2026-04-22 16:59 | 56.51433 | 59.44676 | 34711 ft | 477 kts | 65° |
| 2026-04-22 16:59 | 56.54280 | 59.55456 | 34701 ft | 478 kts | 65° |
| 2026-04-22 17:00 | 56.55967 | 59.61970 | 34703 ft | 477 kts | 66° |
| 2026-04-22 17:00 | 56.60123 | 59.78266 | 34694 ft | 478 kts | 67° |
| 2026-04-22 17:01 | 56.62877 | 59.89190 | 34686 ft | 478 kts | 67° |
| 2026-04-22 17:01 | 56.65632 | 60.00155 | 34686 ft | 478 kts | 67° |
| 2026-04-22 17:02 | 56.68142 | 60.10084 | 34688 ft | 478 kts | 66° |
| 2026-04-22 17:02 | 56.70906 | 60.21021 | 34698 ft | 479 kts | 66° |
| 2026-04-22 17:03 | 56.73665 | 60.32019 | 34709 ft | 478 kts | 67° |
| 2026-04-22 17:03 | 56.76376 | 60.43087 | 34710 ft | 479 kts | 68° |
| 2026-04-22 17:04 | 56.79041 | 60.54129 | 34719 ft | 479 kts | 67° |
| 2026-04-22 17:04 | 56.81711 | 60.65236 | 34723 ft | 479 kts | 68° |
| 2026-04-22 17:05 | 56.84379 | 60.76364 | 34723 ft | 479 kts | 68° |
| 2026-04-22 17:05 | 56.87044 | 60.87462 | 34718 ft | 480 kts | 68° |
| 2026-04-22 17:06 | 56.89704 | 60.98525 | 34714 ft | 480 kts | 68° |
| 2026-04-22 17:06 | 56.92366 | 61.09720 | 34700 ft | 481 kts | 69° |
| 2026-04-22 17:07 | 56.95009 | 61.20974 | 34704 ft | 482 kts | 68° |
| 2026-04-22 17:07 | 56.97669 | 61.32226 | 34697 ft | 481 kts | 68° |
| 2026-04-22 17:08 | 57.00325 | 61.43438 | 34702 ft | 483 kts | 68° |
| 2026-04-22 17:08 | 57.02973 | 61.54678 | 34705 ft | 483 kts | 68° |
| 2026-04-22 17:09 | 57.05619 | 61.65980 | 34716 ft | 483 kts | 69° |
| 2026-04-22 17:09 | 57.08249 | 61.77292 | 34709 ft | 484 kts | 69° |
| 2026-04-22 17:10 | 57.10879 | 61.88657 | 34712 ft | 483 kts | 69° |
| 2026-04-22 17:10 | 57.13473 | 62.00023 | 34714 ft | 484 kts | 71° |
| 2026-04-22 17:11 | 57.15579 | 62.11680 | 34714 ft | 478 kts | 76° |
| 2026-04-22 17:11 | 57.16461 | 62.17424 | 34683 ft | 467 kts | 77° |
| 2026-04-22 17:11 | 57.17307 | 62.23135 | 34462 ft | 459 kts | 78° |
| 2026-04-22 17:12 | 57.18131 | 62.28757 | 34085 ft | 457 kts | 78° |
| 2026-04-22 17:12 | 57.18955 | 62.34397 | 33626 ft | 458 kts | 78° |
| 2026-04-22 17:12 | 57.19787 | 62.40058 | 33150 ft | 461 kts | 78° |
| 2026-04-22 17:12 | 57.20632 | 62.45760 | 32652 ft | 465 kts | 78° |
| 2026-04-22 17:13 | 57.21487 | 62.51493 | 32127 ft | 469 kts | 78° |
| 2026-04-22 17:13 | 57.22350 | 62.57268 | 31580 ft | 473 kts | 78° |
| 2026-04-22 17:13 | 57.23225 | 62.63112 | 31021 ft | 477 kts | 79° |
| 2026-04-22 17:13 | 57.24104 | 62.68982 | 30322 ft | 479 kts | 79° |
| 2026-04-22 17:14 | 57.24996 | 62.74927 | 29705 ft | 477 kts | 79° |
| 2026-04-22 17:14 | 57.25871 | 62.80767 | 29140 ft | 475 kts | 79° |
| 2026-04-22 17:14 | 57.26746 | 62.86634 | 28581 ft | 472 kts | 79° |
| 2026-04-22 17:14 | 57.27612 | 62.92445 | 28027 ft | 469 kts | 78° |
| 2026-04-22 17:15 | 57.28184 | 62.96297 | 27658 ft | 467 kts | 78° |
| 2026-04-22 17:15 | 57.29312 | 63.03908 | 26930 ft | 463 kts | 78° |
| 2026-04-22 17:15 | 57.30159 | 63.09656 | 26381 ft | 460 kts | 78° |
| 2026-04-22 17:15 | 57.30989 | 63.15307 | 25836 ft | 457 kts | 78° |
| 2026-04-22 17:16 | 57.31809 | 63.20918 | 25309 ft | 454 kts | 78° |
| 2026-04-22 17:16 | 57.32629 | 63.26551 | 24778 ft | 450 kts | 78° |
| 2026-04-22 17:16 | 57.33429 | 63.32066 | 24241 ft | 447 kts | 78° |
| 2026-04-22 17:16 | 57.34227 | 63.37585 | 23699 ft | 444 kts | 77° |
| 2026-04-22 17:17 | 57.35012 | 63.43023 | 23338 ft | 436 kts | 77° |
| 2026-04-22 17:17 | 57.35788 | 63.48401 | 23068 ft | 426 kts | 77° |
| 2026-04-22 17:17 | 57.36528 | 63.53566 | 22805 ft | 417 kts | 77° |
| 2026-04-22 17:17 | 57.37260 | 63.58697 | 22544 ft | 408 kts | 77° |
| 2026-04-22 17:18 | 57.37971 | 63.63694 | 22285 ft | 399 kts | 77° |
| 2026-04-22 17:18 | 57.38670 | 63.68637 | 22018 ft | 391 kts | 79° |
| 2026-04-22 17:18 | 57.39206 | 63.73504 | 21730 ft | 381 kts | 87° |
| 2026-04-22 17:18 | 57.39275 | 63.78278 | 21325 ft | 371 kts | 101° |
| 2026-04-22 17:19 | 57.38235 | 63.87454 | 20446 ft | 361 kts | 110° |
| 2026-04-22 17:19 | 57.36917 | 63.96286 | 19570 ft | 356 kts | 111° |
| 2026-04-22 17:20 | 57.35617 | 64.05076 | 18699 ft | 352 kts | 110° |
| 2026-04-22 17:20 | 57.34357 | 64.13771 | 17834 ft | 348 kts | 110° |
| 2026-04-22 17:21 | 57.33737 | 64.18072 | 17413 ft | 346 kts | 110° |
| 2026-04-22 17:21 | 57.32503 | 64.26619 | 16554 ft | 342 kts | 109° |
| 2026-04-22 17:22 | 57.31289 | 64.35001 | 15710 ft | 338 kts | 109° |
| 2026-04-22 17:22 | 57.30680 | 64.39191 | 15295 ft | 336 kts | 109° |
| 2026-04-22 17:22 | 57.29475 | 64.47444 | 14456 ft | 332 kts | 109° |
| 2026-04-22 17:23 | 57.28933 | 64.51602 | 14041 ft | 332 kts | 104° |
| 2026-04-22 17:23 | 57.28417 | 64.60009 | 13233 ft | 331 kts | 96° |
| 2026-04-22 17:23 | 57.28286 | 64.64257 | 12814 ft | 329 kts | 96° |
| 2026-04-22 17:24 | 57.28159 | 64.68444 | 12400 ft | 327 kts | 97° |
| 2026-04-22 17:24 | 57.28020 | 64.72602 | 11999 ft | 324 kts | 97° |
| 2026-04-22 17:24 | 57.27867 | 64.76747 | 11589 ft | 322 kts | 97° |
| 2026-04-22 17:24 | 57.27707 | 64.80825 | 11195 ft | 320 kts | 97° |
| 2026-04-22 17:25 | 57.27444 | 64.84876 | 10756 ft | 317 kts | 105° |
| 2026-04-22 17:25 | 57.26700 | 64.88646 | 10341 ft | 307 kts | 127° |
| 2026-04-22 17:25 | 57.25409 | 64.91645 | 9981 ft | 297 kts | 139° |
| 2026-04-22 17:25 | 57.23969 | 64.94303 | 9621 ft | 293 kts | 141° |
| 2026-04-22 17:26 | 57.22534 | 64.96911 | 9372 ft | 286 kts | 140° |
| 2026-04-22 17:26 | 57.21152 | 64.99513 | 9013 ft | 284 kts | 139° |
| 2026-04-22 17:26 | 57.19794 | 65.02152 | 8658 ft | 282 kts | 138° |
| 2026-04-22 17:26 | 57.18476 | 65.04763 | 8307 ft | 280 kts | 138° |
| 2026-04-22 17:27 | 57.17602 | 65.06503 | 8090 ft | 278 kts | 138° |
| 2026-04-22 17:27 | 57.15864 | 65.09963 | 7623 ft | 275 kts | 138° |
| 2026-04-22 17:27 | 57.14567 | 65.12540 | 7278 ft | 273 kts | 139° |
| 2026-04-22 17:27 | 57.13281 | 65.15091 | 6941 ft | 271 kts | 139° |
| 2026-04-22 17:28 | 57.12006 | 65.17617 | 6599 ft | 269 kts | 139° |
| 2026-04-22 17:28 | 57.10741 | 65.20119 | 6264 ft | 267 kts | 138° |
| 2026-04-22 17:28 | 57.09498 | 65.22578 | 5935 ft | 265 kts | 138° |
| 2026-04-22 17:28 | 57.08243 | 65.25053 | 5598 ft | 263 kts | 138° |
| 2026-04-22 17:29 | 57.07005 | 65.27492 | 5270 ft | 266 kts | 137° |
| 2026-04-22 17:29 | 57.05739 | 65.29990 | 4929 ft | 268 kts | 137° |
| 2026-04-22 17:29 | 57.04466 | 65.32492 | 4582 ft | 266 kts | 137° |
| 2026-04-22 17:29 | 57.03222 | 65.34939 | 4367 ft | 260 kts | 137° |
| 2026-04-22 17:30 | 57.02051 | 65.37369 | 4284 ft | 249 kts | 130° |
| 2026-04-22 17:30 | 57.01244 | 65.40113 | 4200 ft | 243 kts | 104° |
| 2026-04-22 17:30 | 57.01286 | 65.43117 | 4053 ft | 239 kts | 71° |
| 2026-04-22 17:30 | 57.02085 | 65.45705 | 3788 ft | 232 kts | 47° |
| 2026-04-22 17:31 | 57.03197 | 65.47826 | 3578 ft | 224 kts | 41° |
| 2026-04-22 17:31 | 57.04257 | 65.49734 | 3546 ft | 210 kts | 42° |
| 2026-04-22 17:31 | 57.05310 | 65.51494 | 3405 ft | 201 kts | 32° |
| 2026-04-22 17:31 | 57.06554 | 65.52449 | 3229 ft | 192 kts | 359° |
| 2026-04-22 17:32 | 57.07846 | 65.52048 | 3012 ft | 186 kts | 326° |
| 2026-04-22 17:32 | 57.08816 | 65.50621 | 2784 ft | 179 kts | 313° |
| 2026-04-22 17:32 | 57.09737 | 65.49089 | 2517 ft | 178 kts | 314° |
| 2026-04-22 17:32 | 57.10639 | 65.47554 | 2262 ft | 176 kts | 312° |
| 2026-04-22 17:33 | 57.11216 | 65.46537 | 2126 ft | 167 kts | 311° |
| 2026-04-22 17:33 | 57.12273 | 65.44646 | 1772 ft | 153 kts | 310° |
| 2026-04-22 17:33 | 57.13023 | 65.43272 | 1588 ft | 153 kts | 310° |
| 2026-04-22 17:33 | 57.13745 | 65.41966 | 1371 ft | 140 kts | 310° |
| 2026-04-22 17:34 | 57.14418 | 65.40762 | 1191 ft | 133 kts | 313° |
| 2026-04-22 17:34 | 57.15116 | 65.39588 | 989 ft | 136 kts | 312° |
| 2026-04-22 17:34 | 57.15774 | 65.38330 | 809 ft | 139 kts | 309° |
| 2026-04-22 17:34 | 57.16462 | 65.37074 | 639 ft | 141 kts | 314° |
| 2026-04-22 17:35 | 57.17157 | 65.35779 | 454 ft | 141 kts | 310° |
| 2026-04-22 17:35 | 57.17866 | 65.34437 | 863 ft | 146 kts | 310° |
| 2026-04-22 17:35 | 57.18538 | 65.33109 | 1324 ft | 156 kts | 311° |
| 2026-04-22 17:35 | 57.19371 | 65.31640 | 1787 ft | 172 kts | 311° |
| 2026-04-22 17:36 | 57.20042 | 65.29813 | 2345 ft | 179 kts | 284° |
| 2026-04-22 17:36 | 57.20079 | 65.27486 | 2819 ft | 194 kts | 259° |
| 2026-04-22 17:36 | 57.19595 | 65.25040 | 3038 ft | 219 kts | 240° |
| 2026-04-22 17:36 | 57.18431 | 65.23071 | 2999 ft | 243 kts | 206° |
| 2026-04-22 17:37 | 57.16728 | 65.22720 | 3078 ft | 257 kts | 169° |
| 2026-04-22 17:37 | 57.15070 | 65.24044 | 3331 ft | 265 kts | 154° |
| 2026-04-22 17:37 | 57.13484 | 65.25813 | 3074 ft | 265 kts | 150° |
| 2026-04-22 17:37 | 57.11971 | 65.27585 | 3012 ft | 261 kts | 150° |
| 2026-04-22 17:38 | 57.10425 | 65.29392 | 3003 ft | 258 kts | 151° |
| 2026-04-22 17:38 | 57.08935 | 65.31123 | 3005 ft | 254 kts | 151° |
| 2026-04-22 17:38 | 57.07433 | 65.32855 | 3008 ft | 254 kts | 151° |
| 2026-04-22 17:38 | 57.05947 | 65.34568 | 3009 ft | 254 kts | 151° |
| 2026-04-22 17:39 | 57.04453 | 65.36292 | 3009 ft | 254 kts | 150° |
| 2026-04-22 17:39 | 57.03062 | 65.38268 | 3001 ft | 257 kts | 136° |
| 2026-04-22 17:39 | 57.02213 | 65.44363 | 3008 ft | 255 kts | 72° |
| 2026-04-22 17:40 | 57.02978 | 65.47250 | 3008 ft | 246 kts | 53° |
| 2026-04-22 17:40 | 57.04060 | 65.49581 | 3005 ft | 237 kts | 42° |
| 2026-04-22 17:40 | 57.05300 | 65.51430 | 2996 ft | 227 kts | 24° |
| 2026-04-22 17:40 | 57.06766 | 65.52238 | 3009 ft | 215 kts | 357° |
| 2026-04-22 17:41 | 57.08145 | 65.51754 | 2953 ft | 195 kts | 326° |
| 2026-04-22 17:41 | 57.09175 | 65.50198 | 2700 ft | 191 kts | 311° |
| 2026-04-22 17:41 | 57.10122 | 65.48518 | 2415 ft | 190 kts | 312° |
| 2026-04-22 17:41 | 57.11071 | 65.46852 | 2168 ft | 182 kts | 311° |
| 2026-04-22 17:42 | 57.11929 | 65.45307 | 1910 ft | 165 kts | 311° |
| 2026-04-22 17:42 | 57.12711 | 65.43887 | 1655 ft | 150 kts | 310° |
| 2026-04-22 17:42 | 57.13186 | 65.43021 | 1529 ft | 138 kts | 310° |
| 2026-04-22 17:42 | 57.14081 | 65.41383 | 1289 ft | 136 kts | 310° |
| 2026-04-22 17:43 | 57.14762 | 65.40142 | 1126 ft | 141 kts | 312° |
| 2026-04-22 17:43 | 57.15477 | 65.38902 | 887 ft | 142 kts | 311° |
| 2026-04-22 17:43 | 57.16156 | 65.37633 | 700 ft | 140 kts | 310° |
| 2026-04-22 17:43 | 57.16826 | 65.36383 | 514 ft | 136 kts | 312° |
| 2026-04-22 17:44 | 57.17494 | 65.35131 | 347 ft | 131 kts | 312° |
| 2026-04-22 17:44 | 57.18021 | 65.34141 | 336 ft | 81 kts | 314° |
| 2026-04-22 17:44 | 57.18317 | 65.33602 | 331 ft | 49 kts | 315° |
| 2026-04-22 17:44 | 57.18485 | 65.33289 | 325 ft | 16 kts | 316° |
| 2026-04-22 17:45 | 57.18561 | 65.33260 | 321 ft | 11 kts | 31° |
| 2026-04-22 17:45 | 57.18612 | 65.33353 | 319 ft | 10 kts | 64° |
| 2026-04-22 17:45 | 57.18620 | 65.33479 | 319 ft | 9 kts | 87° |
| 2026-04-22 17:45 | 57.18612 | 65.33602 | 317 ft | 10 kts | 120° |
| 2026-04-22 17:46 | 57.18558 | 65.33710 | 318 ft | 14 kts | 135° |
| 2026-04-22 17:46 | 57.18472 | 65.33868 | 321 ft | 20 kts | 135° |
| 2026-04-22 17:46 | 57.18358 | 65.34079 | 326 ft | 23 kts | 134° |
| 2026-04-22 17:46 | 57.18247 | 65.34285 | 328 ft | 21 kts | 134° |
| 2026-04-22 17:47 | 57.18155 | 65.34454 | 330 ft | 16 kts | 133° |
| 2026-04-22 17:47 | 57.18087 | 65.34582 | 332 ft | 11 kts | 134° |
| 2026-04-22 17:47 | 57.18046 | 65.34663 | 333 ft | 4 kts | 119° |
| 2026-04-22 17:47 | 57.18049 | 65.34735 | 333 ft | 8 kts | 58° |
| 2026-04-22 17:48 | 57.18071 | 65.34781 | 332 ft | 3 kts | 45° |
| 2026-04-22 17:48 | 57.18078 | 65.34795 | 332 ft | 0 kts | 45° |